Weather at Henbury Airport

Public forecast

Using degrees Celsius for public forecast. Weather courtesy of forecast.io.

Closest aviation weather report (METAR) to Henbury Airport

Report is more than 2 hours old.

Closest report is Alice Springs Airport, 59.2 nm (109.7 km) NE. Retrieved 2021/10/25 14:30 UTC (2 hours ago):

YBAS 251430Z AUTO 07007KT 9999 // NCD 26/04 Q1014 RF000/0000

Closest aviation forecast (TAF) to Henbury Airport

Closest forecast is Alice Springs Airport, 59.2 nm (109.7 km) NE. Retrieved 2021/10/25 12:00 UTC (5 hours ago):

TAF YBAS 251101Z 2512/2612 08010KT CAVOK FM260200 35012KT CAVOK